Time;durP1;ratioP1;P1;durP2;ratioP2;P2;SDS_P1;SDS_P2;PMS_P1;PMS_P2;Temp;Humidity;BMP_temperature;BMP_pressure;BME280_temperature;BME280_humidity;BME280_pressure;Samples;Min_cycle;Max_cycle;Signal;HPM_P1;HPM_P2
2022/04/23 00:00:19;;;;;;;6.47;5.27;;;;;;;12.88;88.32;94614.72;5056669;28;20286;-80
2022/04/23 00:02:46;;;;;;;5.50;5.00;;;;;;;12.95;88.12;94613.56;5016049;28;20302;-80
2022/04/23 00:05:13;;;;;;;7.63;5.20;;;;;;;13.00;87.07;94617.03;5053626;28;20211;-80
2022/04/23 00:07:40;;;;;;;7.33;6.10;;;;;;;12.92;87.34;94616.88;5040746;28;20206;-80
2022/04/23 00:10:12;;;;;;;8.57;6.00;;;;;;;12.73;89.41;94620.28;5036817;28;20206;-80
2022/04/23 00:12:42;;;;;;;11.83;6.53;;;;;;;12.70;90.43;94607.31;5028093;28;20238;-80
2022/04/23 00:15:10;;;;;;;9.63;6.20;;;;;;;12.70;89.79;94611.91;5040048;28;20280;-80
2022/04/23 00:17:37;;;;;;;7.20;6.37;;;;;;;12.65;90.09;94615.50;5019645;28;20202;-80
2022/04/23 00:20:05;;;;;;;6.63;5.50;;;;;;;12.70;90.44;94609.22;5036112;28;20239;-80
2022/04/23 00:22:33;;;;;;;9.77;5.80;;;;;;;12.75;90.27;94614.59;5036816;28;20215;-80
2022/04/23 00:25:00;;;;;;;7.30;6.33;;;;;;;12.73;90.05;94605.94;5040872;28;20230;-80
2022/04/23 00:27:27;;;;;;;7.93;6.17;;;;;;;12.75;90.48;94615.41;5026801;28;20209;-80
2022/04/23 00:29:56;;;;;;;6.00;5.40;;;;;;;12.80;91.35;94607.22;5016778;28;20211;-80
2022/04/23 00:32:23;;;;;;;8.87;5.87;;;;;;;12.80;91.78;94601.81;5036997;28;20253;-80
2022/04/23 00:34:50;;;;;;;7.60;6.00;;;;;;;12.78;90.23;94606.69;5022516;28;20207;-80
2022/04/23 00:37:17;;;;;;;7.73;5.50;;;;;;;12.77;90.84;94605.06;5034958;28;20206;-80
2022/04/23 00:39:43;;;;;;;6.63;5.80;;;;;;;12.79;90.78;94599.38;5051263;28;20220;-80
2022/04/23 00:42:11;;;;;;;7.87;6.00;;;;;;;12.74;90.96;94602.97;5037796;28;20213;-80
2022/04/23 00:44:38;;;;;;;8.67;5.97;;;;;;;12.71;91.29;94589.16;5034900;28;20277;-80
2022/04/23 00:47:08;;;;;;;8.77;6.20;;;;;;;12.70;91.95;94593.78;5031655;28;20210;-80
2022/04/23 00:49:35;;;;;;;7.27;6.50;;;;;;;12.65;91.90;94596.53;5020730;28;20261;-80
2022/04/23 00:52:02;;;;;;;7.23;6.53;;;;;;;12.56;92.88;94590.13;5053754;28;20314;-80
2022/04/23 00:54:30;;;;;;;6.60;5.97;;;;;;;12.54;92.99;94584.19;5028972;28;20202;-80
2022/04/23 00:56:58;;;;;;;7.33;6.40;;;;;;;12.55;93.71;94580.41;5025438;28;20206;-80
2022/04/23 00:59:27;;;;;;;7.53;6.40;;;;;;;12.57;93.38;94580.13;5024236;28;20219;-80
2022/04/23 01:01:54;;;;;;;9.57;6.10;;;;;;;12.46;93.66;94584.81;5021605;28;20311;-80
2022/04/23 01:04:22;;;;;;;7.77;6.03;;;;;;;12.38;94.40;94582.72;5022684;28;20203;-80
2022/04/23 01:06:49;;;;;;;7.37;5.37;;;;;;;12.37;93.77;94572.97;5057943;28;20205;-79
2022/04/23 01:09:16;;;;;;;6.43;5.40;;;;;;;12.41;94.00;94574.84;5035498;28;20198;-80
2022/04/23 01:11:44;;;;;;;6.50;5.43;;;;;;;12.37;93.12;94576.50;5036438;28;20253;-80
2022/04/23 01:14:11;;;;;;;9.53;6.00;;;;;;;12.31;94.64;94577.63;5021413;28;20245;-80
2022/04/23 01:16:38;;;;;;;7.73;6.13;;;;;;;12.26;94.81;94574.16;5031781;28;20210;-80
2022/04/23 01:19:05;;;;;;;7.07;5.47;;;;;;;12.24;94.91;94573.66;5061720;28;20210;-80
2022/04/23 01:21:34;;;;;;;9.37;5.90;;;;;;;12.23;95.36;94559.31;5019598;28;20308;-80
2022/04/23 01:24:02;;;;;;;7.10;5.60;;;;;;;12.25;94.97;94570.63;5034146;28;20225;-80
2022/04/23 01:26:31;;;;;;;9.30;5.50;;;;;;;12.27;95.10;94560.34;5025184;28;20296;-80
2022/04/23 01:28:59;;;;;;;7.07;5.67;;;;;;;12.29;94.40;94560.06;5026068;28;20261;-80
2022/04/23 01:31:26;;;;;;;7.17;5.67;;;;;;;12.30;94.81;94565.19;5053971;28;20217;-80
2022/04/23 01:33:54;;;;;;;6.37;5.63;;;;;;;12.30;94.41;94569.78;5025847;28;20215;-80
2022/04/23 01:36:21;;;;;;;6.00;5.40;;;;;;;12.21;95.61;94560.69;5031934;28;20335;-80
2022/04/23 01:38:49;;;;;;;7.63;6.13;;;;;;;12.08;96.50;94562.13;5043768;28;20220;-80
2022/04/23 01:41:17;;;;;;;7.20;6.50;;;;;;;12.03;97.48;94571.09;5049856;28;20208;-80
2022/04/23 01:43:44;;;;;;;8.40;6.60;;;;;;;12.03;97.67;94559.47;5013598;28;20203;-80
2022/04/23 01:46:11;;;;;;;8.33;6.53;;;;;;;11.96;98.50;94565.19;5027784;28;20216;-80
2022/04/23 01:48:38;;;;;;;13.10;6.80;;;;;;;11.94;98.92;94556.56;5033417;28;20208;-80
2022/04/23 01:51:05;;;;;;;9.90;7.23;;;;;;;11.96;98.53;94554.38;5021298;28;20206;-80
2022/04/23 01:53:32;;;;;;;10.10;7.20;;;;;;;11.98;98.49;94573.03;5023398;28;20233;-79
2022/04/23 01:56:01;;;;;;;10.87;6.87;;;;;;;11.94;98.64;94556.56;5056941;28;20209;-80
2022/04/23 01:58:28;;;;;;;8.37;6.53;;;;;;;11.92;98.28;94553.31;5030387;28;20195;-80
2022/04/23 02:00:55;;;;;;;11.67;6.70;;;;;;;11.88;98.23;94554.97;5053611;28;20238;-80
2022/04/23 02:03:23;;;;;;;9.80;6.87;;;;;;;11.92;98.89;94569.53;5019828;28;20325;-80
2022/04/23 02:05:50;;;;;;;11.10;6.03;;;;;;;11.89;99.26;94559.31;5018752;28;20209;-80
2022/04/23 02:08:18;;;;;;;10.10;6.20;;;;;;;11.89;99.84;94575.53;5051025;28;20203;-80
2022/04/23 02:10:47;;;;;;;9.10;6.90;;;;;;;11.87;100.00;94560.66;5033477;28;20270;-80
2022/04/23 02:13:16;;;;;;;11.80;7.90;;;;;;;11.86;100.00;94570.69;5048394;28;20241;-80
2022/04/23 02:15:43;;;;;;;9.60;7.50;;;;;;;11.80;99.92;94571.00;5056098;28;20266;-80
2022/04/23 02:18:11;;;;;;;10.00;7.40;;;;;;;11.70;100.00;94563.72;5033119;28;20306;-80
2022/04/23 02:20:38;;;;;;;9.33;6.93;;;;;;;11.71;100.00;94570.75;5058087;28;20306;-80
2022/04/23 02:23:05;;;;;;;9.30;7.43;;;;;;;11.75;99.64;94571.81;5021998;28;20238;-80
2022/04/23 02:25:34;;;;;;;9.00;7.63;;;;;;;11.75;99.36;94569.94;5025727;28;20233;-80
2022/04/23 02:28:01;;;;;;;10.40;7.63;;;;;;;11.75;99.41;94574.53;5020046;28;20506;-80
2022/04/23 02:30:31;;;;;;;8.67;7.70;;;;;;;11.76;99.58;94570.75;5032373;28;20203;-80
2022/04/23 02:32:58;;;;;;;8.80;7.90;;;;;;;11.79;99.05;94577.50;5052838;28;20215;-80
2022/04/23 02:35:25;;;;;;;9.23;7.60;;;;;;;11.67;100.00;94564.28;5054625;28;20289;-80
2022/04/23 02:37:56;;;;;;;10.43;7.37;;;;;;;11.65;99.92;94571.88;5022657;28;20201;-80
2022/04/23 02:40:24;;;;;;;9.10;8.00;;;;;;;11.56;100.00;94587.88;5041671;28;20210;-80
2022/04/23 02:42:51;;;;;;;12.47;8.60;;;;;;;11.51;100.00;94584.38;5040795;28;20206;-80
2022/04/23 02:45:20;;;;;;;11.40;7.60;;;;;;;11.50;100.00;94585.47;5049022;28;20214;-80
2022/04/23 02:47:50;;;;;;;8.87;7.27;;;;;;;11.49;100.00;94581.16;5037965;28;20202;-80
2022/04/23 02:50:25;;;;;;;9.97;7.90;;;;;;;11.46;100.00;94581.72;5033429;28;20293;-80
2022/04/23 02:52:52;;;;;;;9.23;7.30;;;;;;;11.45;100.00;94572.00;5015253;28;20229;-80
2022/04/23 02:55:19;;;;;;;10.17;7.37;;;;;;;11.47;100.00;94583.34;5038980;28;20203;-80
2022/04/23 02:57:46;;;;;;;7.50;6.70;;;;;;;11.50;100.00;94574.66;5017748;28;20215;-80
2022/04/23 03:00:14;;;;;;;7.43;6.63;;;;;;;11.41;100.00;94571.72;5021310;28;20277;-80
2022/04/23 03:02:41;;;;;;;14.33;7.27;;;;;;;11.42;100.00;94564.44;5056882;28;20261;-80
2022/04/23 03:05:14;;;;;;;10.47;7.27;;;;;;;11.36;100.00;94559.06;5027259;28;20219;-80
2022/04/23 03:07:42;;;;;;;16.53;7.63;;;;;;;11.36;100.00;94556.38;5033177;28;20197;-80
2022/04/23 03:10:11;;;;;;;8.77;6.83;;;;;;;11.28;100.00;94559.66;5044984;28;20206;-80
2022/04/23 03:12:39;;;;;;;8.23;7.23;;;;;;;11.33;100.00;94566.91;5027126;28;20241;-80
2022/04/23 03:15:07;;;;;;;8.17;6.80;;;;;;;11.39;100.00;94565.81;5044789;28;20246;-80
2022/04/23 03:17:35;;;;;;;7.60;6.80;;;;;;;11.42;100.00;94554.44;5040685;28;20310;-80
2022/04/23 03:20:02;;;;;;;10.37;7.47;;;;;;;11.43;100.00;94560.66;5025093;28;20206;-80
2022/04/23 03:22:30;;;;;;;8.47;7.13;;;;;;;11.40;100.00;94558.53;5074173;28;20212;-80
2022/04/23 03:24:57;;;;;;;9.30;7.00;;;;;;;11.43;100.00;94555.25;5022302;28;20229;-80
2022/04/23 03:27:25;;;;;;;8.03;7.10;;;;;;;11.34;100.00;94555.03;5040506;28;20238;-80
2022/04/23 03:29:53;;;;;;;10.00;7.40;;;;;;;11.34;100.00;94553.13;5039302;28;20207;-80
2022/04/23 03:32:21;;;;;;;9.03;7.50;;;;;;;11.37;100.00;94547.19;5020387;28;20215;-80
2022/04/23 03:34:49;;;;;;;8.80;6.70;;;;;;;11.34;100.00;94547.72;5022770;28;20225;-80
2022/04/23 03:37:16;;;;;;;10.33;7.50;;;;;;;11.36;100.00;94556.38;5044073;28;20194;-80
2022/04/23 03:39:44;;;;;;;10.67;7.90;;;;;;;11.29;100.00;94553.16;5023474;28;20217;-80
2022/04/23 03:42:12;;;;;;;10.97;6.90;;;;;;;11.33;100.00;94548.81;5030699;28;20230;-80
2022/04/23 03:44:39;;;;;;;7.70;6.90;;;;;;;11.37;100.00;94547.19;5037991;28;20208;-80
2022/04/23 03:47:06;;;;;;;8.63;7.07;;;;;;;11.38;100.00;94543.38;5022665;28;20285;-80
2022/04/23 03:49:33;;;;;;;11.47;8.53;;;;;;;11.35;100.00;94554.75;5021682;28;20213;-80
2022/04/23 03:52:00;;;;;;;9.07;7.87;;;;;;;11.29;100.00;94544.25;5020415;28;20277;-80
2022/04/23 03:54:27;;;;;;;9.80;7.70;;;;;;;11.30;100.00;94552.09;5024565;28;20221;-80
2022/04/23 03:56:56;;;;;;;8.07;7.00;;;;;;;11.31;100.00;94537.47;5066365;28;20210;-80
2022/04/23 03:59:23;;;;;;;10.93;7.90;;;;;;;11.36;100.00;94544.75;5039234;28;20215;-80
2022/04/23 04:01:52;;;;;;;8.60;6.83;;;;;;;11.35;100.00;94543.94;5021379;28;20214;-80
2022/04/23 04:04:20;;;;;;;9.10;7.10;;;;;;;11.33;100.00;94546.09;5031352;28;20214;-80
2022/04/23 04:06:47;;;;;;;8.37;6.97;;;;;;;11.31;100.00;94550.97;5061152;28;20209;-80
2022/04/23 04:09:14;;;;;;;8.53;7.63;;;;;;;11.25;100.00;94554.78;5032949;28;20234;-80
2022/04/23 04:14:27;;;;;;;9.00;7.60;;;;;;;11.24;100.00;94542.38;5022988;28;20219;-80
2022/04/23 04:16:54;;;;;;;8.90;7.83;;;;;;;11.20;100.00;94549.44;5022650;28;20203;-80
2022/04/23 04:19:22;;;;;;;16.40;9.97;;;;;;;11.23;100.00;94551.56;5025091;28;20278;-80
2022/04/23 04:21:49;;;;;;;9.70;8.33;;;;;;;11.23;100.00;94550.75;5037025;28;20203;-80
2022/04/23 04:24:16;;;;;;;11.50;7.77;;;;;;;11.23;100.00;94545.34;5035863;28;20301;-80
2022/04/23 04:26:44;;;;;;;8.47;7.43;;;;;;;11.23;100.00;94548.03;5016352;28;20207;-80
2022/04/23 04:29:12;;;;;;;9.13;7.70;;;;;;;11.17;100.00;94541.88;5050624;28;20214;-80
2022/04/23 04:31:50;;;;;;;8.93;7.57;;;;;;;11.18;100.00;94556.19;5019086;28;20217;-80
2022/04/23 04:34:18;;;;;;;10.50;7.70;;;;;;;11.17;100.00;94532.94;5055540;28;20250;-80
2022/04/23 04:36:46;;;;;;;10.37;7.70;;;;;;;11.21;100.00;94531.31;5022480;28;20209;-80
2022/04/23 04:39:14;;;;;;;10.50;8.23;;;;;;;11.26;100.00;94548.31;5032783;28;20211;-80
2022/04/23 04:41:41;;;;;;;10.10;7.70;;;;;;;11.24;100.00;94531.56;5042256;28;20199;-80
2022/04/23 04:44:08;;;;;;;9.27;7.97;;;;;;;11.25;100.00;94533.19;5024607;28;20222;-80
2022/04/23 04:46:36;;;;;;;9.67;8.27;;;;;;;11.30;100.00;94541.28;5053054;28;20215;-80
2022/04/23 04:49:06;;;;;;;14.40;8.20;;;;;;;11.25;100.00;94525.06;5024206;28;20207;-80
2022/04/23 04:51:35;;;;;;;12.00;8.90;;;;;;;11.31;100.00;94542.88;5027873;28;20210;-80
2022/04/23 04:54:02;;;;;;;10.10;8.83;;;;;;;11.31;100.00;94542.88;5037287;28;20225;-80
2022/04/23 04:56:29;;;;;;;13.50;8.57;;;;;;;11.26;100.00;94544.78;5010053;28;20219;-80
2022/04/23 04:58:56;;;;;;;10.40;9.03;;;;;;;11.34;100.00;94549.63;5027352;28;20221;-80
2022/04/23 05:01:23;;;;;;;10.57;9.03;;;;;;;11.31;100.00;94542.09;5029051;28;20199;-79
2022/04/23 05:03:51;;;;;;;11.40;9.13;;;;;;;11.36;100.00;94544.75;5015660;28;20208;-80
2022/04/23 05:06:20;;;;;;;14.13;9.13;;;;;;;11.31;100.00;94544.78;5025845;28;20211;-80
2022/04/23 05:08:47;;;;;;;11.17;8.80;;;;;;;11.30;100.00;94552.09;5036911;28;20326;-80
2022/04/23 05:11:14;;;;;;;11.80;9.40;;;;;;;11.28;100.00;94540.75;5018364;28;20213;-80
2022/04/23 05:13:41;;;;;;;11.90;9.30;;;;;;;11.24;100.00;94536.16;5055355;28;20238;-79
2022/04/23 05:16:09;;;;;;;11.47;8.87;;;;;;;11.24;100.00;94538.84;5017422;28;20207;-79
2022/04/23 05:18:36;;;;;;;15.50;9.90;;;;;;;11.22;100.00;94538.34;5031034;28;20215;-80
2022/04/23 05:21:04;;;;;;;12.93;9.23;;;;;;;11.19;100.00;94555.91;5008366;28;20204;-80
2022/04/23 05:23:32;;;;;;;15.83;9.93;;;;;;;11.13;100.00;94546.22;5061251;28;20284;-80
2022/04/23 05:26:00;;;;;;;12.97;9.83;;;;;;;11.21;100.00;94542.94;5044762;28;20199;-80
2022/04/23 05:28:27;;;;;;;14.63;10.47;;;;;;;11.30;100.00;94551.28;5039078;28;20199;-79
2022/04/23 05:30:54;;;;;;;12.83;10.20;;;;;;;11.30;100.00;94529.66;5059754;28;20202;-79
2022/04/23 05:33:21;;;;;;;12.83;10.43;;;;;;;11.29;100.00;94545.06;5022263;28;20271;-79
2022/04/23 05:35:48;;;;;;;11.00;9.73;;;;;;;11.29;100.00;94545.06;5026301;28;20226;-79
2022/04/23 05:38:15;;;;;;;12.33;9.93;;;;;;;11.29;100.00;94547.75;5023683;28;20202;-80
2022/04/23 05:40:44;;;;;;;13.93;10.53;;;;;;;11.31;100.00;94547.50;5030668;28;20195;-80
2022/04/23 05:43:11;;;;;;;13.73;10.73;;;;;;;11.36;100.00;94545.56;5025020;28;20221;-79
2022/04/23 05:45:37;;;;;;;14.20;10.47;;;;;;;11.40;100.00;94555.81;5022705;28;20205;-80
2022/04/23 05:48:05;;;;;;;17.40;11.23;;;;;;;11.42;100.00;94554.44;5062377;28;20302;-80
2022/04/23 05:50:32;;;;;;;13.33;10.90;;;;;;;11.43;100.00;94555.25;5067028;28;20213;-80
2022/04/23 05:53:00;;;;;;;14.87;11.43;;;;;;;11.45;100.00;94555.78;5025785;28;20236;-80
2022/04/23 05:55:27;;;;;;;13.33;11.07;;;;;;;11.47;100.00;94557.13;5025411;28;20222;-80
2022/04/23 05:57:55;;;;;;;16.03;11.93;;;;;;;11.53;100.00;94555.19;5018156;28;20199;-80
2022/04/23 06:00:22;;;;;;;15.70;11.23;;;;;;;11.61;100.00;94568.91;5023704;28;20217;-80
2022/04/23 06:02:50;;;;;;;13.60;11.40;;;;;;;11.57;100.00;94558.97;5057418;28;20218;-80
2022/04/23 06:05:17;;;;;;;17.20;12.97;;;;;;;11.63;100.00;94563.25;5054098;28;20225;-80
2022/04/23 06:07:44;;;;;;;17.00;13.20;;;;;;;11.69;100.00;94564.81;5025411;28;20289;-80
2022/04/23 06:10:11;;;;;;;16.10;12.53;;;;;;;11.75;100.00;94569.13;5023864;28;20214;-80
2022/04/23 06:12:39;;;;;;;16.87;13.17;;;;;;;11.73;100.00;94564.00;5019260;28;20246;-80
2022/04/23 06:15:08;;;;;;;16.83;13.20;;;;;;;11.81;100.00;94565.31;5020003;28;20233;-80
2022/04/23 06:17:35;;;;;;;17.80;13.50;;;;;;;11.81;100.00;94561.81;5027134;28;20214;-80
2022/04/23 06:20:05;;;;;;;18.67;13.63;;;;;;;11.90;100.00;94565.53;5018047;28;20214;-80
2022/04/23 06:22:32;;;;;;;18.50;13.87;;;;;;;12.00;100.00;94568.94;5027459;28;20215;-80
2022/04/23 06:24:59;;;;;;;16.77;13.83;;;;;;;12.05;100.00;94568.91;5022324;28;20237;-80
2022/04/23 06:27:26;;;;;;;20.13;14.27;;;;;;;12.11;100.00;94575.91;5021673;28;20262;-80
2022/04/23 06:29:53;;;;;;;19.90;14.27;;;;;;;12.15;100.00;94580.75;5056480;28;20211;-80
2022/04/23 06:32:22;;;;;;;20.17;14.70;;;;;;;12.20;100.00;94578.00;5022439;28;20242;-81
2022/04/23 06:34:49;;;;;;;20.80;15.87;;;;;;;12.18;100.00;94567.44;5024862;28;20230;-80
2022/04/23 06:37:18;;;;;;;18.13;16.13;;;;;;;12.21;100.00;94576.91;5028600;28;20238;-80
2022/04/23 06:39:45;;;;;;;21.30;15.87;;;;;;;12.19;100.00;94579.91;5030267;28;20197;-80
2022/04/23 06:42:12;;;;;;;22.60;16.20;;;;;;;12.22;100.00;94586.66;5065332;28;20211;-80
2022/04/23 06:44:40;;;;;;;19.70;16.80;;;;;;;12.25;100.00;94581.47;5024948;28;20203;-80
2022/04/23 06:47:07;;;;;;;23.77;16.37;;;;;;;12.19;100.00;94579.91;5038200;28;20207;-80
2022/04/23 06:49:35;;;;;;;23.57;17.77;;;;;;;12.28;100.00;94588.22;5039846;28;20210;-80
2022/04/23 06:52:02;;;;;;;22.77;16.47;;;;;;;12.30;100.00;94594.97;5024261;28;20206;-80
2022/04/23 06:54:30;;;;;;;21.80;16.67;;;;;;;12.36;100.00;94590.31;5024433;28;20258;-80
2022/04/23 06:56:57;;;;;;;19.50;15.83;;;;;;;12.38;100.00;94598.94;5053098;28;20203;-80
2022/04/23 06:59:24;;;;;;;23.10;16.20;;;;;;;12.46;100.00;94591.03;5023558;28;20210;-80
2022/04/23 07:01:51;;;;;;;21.10;17.00;;;;;;;12.43;100.00;94590.78;5023323;28;20222;-80
2022/04/23 07:04:18;;;;;;;19.43;16.60;;;;;;;12.39;100.00;94597.88;5028803;28;20302;-80
2022/04/23 07:06:47;;;;;;;22.90;17.33;;;;;;;12.29;100.00;94601.47;5025832;28;20210;-80
2022/04/23 07:09:14;;;;;;;20.53;16.87;;;;;;;12.31;100.00;94584.94;5043878;28;20202;-81
2022/04/23 07:11:41;;;;;;;22.07;16.77;;;;;;;12.38;100.00;94598.94;5021766;28;20237;-80
2022/04/23 07:14:08;;;;;;;20.63;16.83;;;;;;;12.34;100.00;94597.88;5051961;28;20202;-81
2022/04/23 07:16:36;;;;;;;19.87;16.50;;;;;;;12.42;100.00;94583.75;5025502;28;20218;-79
2022/04/23 07:19:04;;;;;;;22.13;17.27;;;;;;;12.43;100.00;94596.19;5023997;28;20210;-79
2022/04/23 07:21:32;;;;;;;22.03;17.23;;;;;;;12.46;100.00;94598.34;5060567;28;20218;-80
2022/04/23 07:24:11;;;;;;;21.70;16.77;;;;;;;12.48;100.00;94602.38;5025113;28;20227;-80
2022/04/23 07:26:40;;;;;;;23.43;17.57;;;;;;;12.51;100.00;94603.69;5038086;28;20217;-80
2022/04/23 07:29:10;;;;;;;22.63;17.83;;;;;;;12.46;100.00;94614.59;5034843;28;20338;-80
2022/04/23 07:31:38;;;;;;;22.17;17.90;;;;;;;12.48;100.00;94609.69;5021581;28;20194;-80
2022/04/23 07:39:37;;;;;;;22.83;18.27;;;;;;;12.43;100.00;94624.06;5058314;28;20247;-80
2022/04/23 07:42:06;;;;;;;23.30;18.03;;;;;;;12.54;100.00;94624.78;5059304;28;20199;-80
2022/04/23 07:44:33;;;;;;;20.13;15.73;;;;;;;12.61;100.00;94624.47;5013824;28;20300;-80
2022/04/23 07:47:00;;;;;;;4.93;1.50;;;;;;;13.14;83.74;94619.91;5059932;28;20219;-79
2022/04/23 07:49:27;;;;;;;0.60;0.60;;;;;;;13.95;73.29;94621.59;5025957;28;20206;-79
2022/04/23 07:51:54;;;;;;;1.60;0.60;;;;;;;14.34;68.96;94632.94;5057514;28;20218;-80
2022/04/23 07:54:21;;;;;;;1.80;0.60;;;;;;;14.48;68.09;94624.06;5019706;28;20257;-79
2022/04/23 07:56:50;;;;;;;0.63;0.50;;;;;;;14.62;67.32;94614.06;5048096;28;20199;-79
2022/04/23 07:59:17;;;;;;;0.40;0.40;;;;;;;14.64;68.13;94630.84;5058223;28;20206;-80
2022/04/23 08:01:44;;;;;;;0.40;0.40;;;;;;;14.54;68.52;94645.44;5017826;28;20261;-80
2022/04/23 08:04:11;;;;;;;0.87;0.50;;;;;;;14.39;68.67;94623.94;5018756;28;20210;-80
2022/04/23 08:06:38;;;;;;;0.40;0.40;;;;;;;14.36;72.18;94638.88;5052766;28;20221;-80
2022/04/23 08:09:05;;;;;;;0.50;0.50;;;;;;;14.33;72.89;94628.59;5015034;28;20234;-80
2022/04/23 08:11:32;;;;;;;0.40;0.40;;;;;;;14.35;71.32;94631.84;5013878;28;20312;-80
2022/04/23 08:14:01;;;;;;;0.50;0.50;;;;;;;14.51;71.34;94643.28;5019121;28;20222;-80
2022/04/23 08:16:29;;;;;;;0.50;0.50;;;;;;;14.48;70.08;94634.91;5041691;28;20231;-80
2022/04/23 08:18:56;;;;;;;0.50;0.50;;;;;;;14.48;71.54;94633.00;5023779;28;20237;-80
2022/04/23 08:21:24;;;;;;;0.40;0.40;;;;;;;14.50;72.00;94628.09;5042951;28;20203;-80
2022/04/23 08:23:51;;;;;;;0.50;0.50;;;;;;;14.53;70.02;94605.78;5016017;28;20234;-80
2022/04/23 08:26:18;;;;;;;0.47;0.47;;;;;;;14.69;73.89;94614.47;5018102;28;20215;-80
2022/04/23 08:31:32;;;;;;;0.40;0.40;;;;;;;14.67;68.71;94609.34;5018359;28;20215;-80
2022/04/23 08:33:58;;;;;;;0.40;0.40;;;;;;;14.64;69.94;94617.28;5034315;28;20230;-80
2022/04/23 08:36:27;;;;;;;0.60;0.60;;;;;;;14.59;72.43;94620.09;5015919;28;20227;-80
2022/04/23 08:38:56;;;;;;;0.70;0.53;;;;;;;14.61;74.56;94609.72;5023237;28;20205;-80
2022/04/23 08:41:28;;;;;;;0.63;0.50;;;;;;;14.59;73.99;94611.94;5055904;28;20210;-80
2022/04/23 08:44:02;;;;;;;0.50;0.50;;;;;;;14.62;73.73;94608.63;5029566;28;20212;-80
2022/04/23 08:46:31;;;;;;;0.43;0.43;;;;;;;14.83;71.14;94593.56;5025844;28;20226;-80
2022/04/23 08:49:08;;;;;;;0.40;0.40;;;;;;;14.97;70.82;94588.97;5043065;28;20206;-80
2022/04/23 08:51:37;;;;;;;0.63;0.50;;;;;;;15.03;68.36;94582.34;5053515;28;20209;-80
2022/04/23 08:54:07;;;;;;;0.50;0.50;;;;;;;15.26;66.57;94577.81;5032617;28;20199;-80
2022/04/23 08:56:36;;;;;;;0.40;0.40;;;;;;;15.59;63.11;94586.69;5023628;28;20284;-80
2022/04/23 08:59:04;;;;;;;0.40;0.40;;;;;;;15.75;60.43;94581.72;5031606;28;20207;-80
2022/04/23 09:01:33;;;;;;;0.40;0.40;;;;;;;15.90;60.04;94578.69;5033531;28;20247;-80
2022/04/23 09:04:01;;;;;;;0.50;0.50;;;;;;;15.88;58.58;94570.81;5016847;28;20207;-80
2022/04/23 09:06:40;;;;;;;0.50;0.50;;;;;;;16.12;57.91;94573.25;5035266;28;20207;-80
2022/04/23 09:09:13;;;;;;;0.50;0.50;;;;;;;16.37;56.21;94566.41;5025694;28;20202;-80
2022/04/23 09:11:43;;;;;;;1.17;0.60;;;;;;;16.39;53.71;94558.72;5036946;28;20245;-80
2022/04/23 09:14:23;;;;;;;0.60;0.50;;;;;;;16.49;54.48;94569.38;5024939;28;20288;-80
2022/04/23 09:25:16;;;;;;;1.43;0.50;;;;;;;16.94;52.30;94570.13;5019755;28;20226;-80
2022/04/23 09:27:43;;;;;;;3.30;0.50;;;;;;;16.89;51.98;94555.84;5020471;28;20214;-80
2022/04/23 09:30:12;;;;;;;0.63;0.50;;;;;;;17.08;51.90;94563.81;5037926;28;20222;-80
2022/04/23 09:32:57;;;;;;;0.50;0.50;;;;;;;17.08;50.85;94558.34;5034273;28;20207;-80
2022/04/23 09:35:25;;;;;;;0.73;0.50;;;;;;;17.08;50.52;94552.91;5024417;28;20222;-80
2022/04/23 09:40:38;;;;;;;1.77;0.50;;;;;;;17.39;50.19;94565.34;5031716;28;20309;-81
2022/04/23 09:43:06;;;;;;;0.40;0.40;;;;;;;17.28;49.84;94553.13;5036602;28;20211;-81
2022/04/23 09:45:39;;;;;;;0.63;0.50;;;;;;;17.10;50.26;94556.88;5039349;28;20206;-80
2022/04/23 09:48:20;;;;;;;0.50;0.50;;;;;;;17.15;49.61;94554.03;5045544;28;20203;-80
2022/04/23 09:50:49;;;;;;;1.40;0.60;;;;;;;17.53;48.91;94573.41;5037433;28;20323;-80
2022/04/23 09:53:17;;;;;;;0.50;0.50;;;;;;;17.78;48.39;94577.34;5025896;28;20265;-80
2022/04/23 09:55:45;;;;;;;0.50;0.50;;;;;;;17.69;48.16;94588.25;5032858;28;20309;-80
2022/04/23 09:58:13;;;;;;;1.70;0.50;;;;;;;17.56;48.32;94582.91;5025032;28;20265;-80
2022/04/23 10:00:43;;;;;;;0.40;0.40;;;;;;;17.24;49.57;94579.44;5058741;28;20207;-80
2022/04/23 10:03:12;;;;;;;0.50;0.50;;;;;;;17.42;49.42;94584.94;5045344;28;20202;-80
2022/04/23 10:05:41;;;;;;;0.83;0.40;;;;;;;17.38;49.78;94598.41;5034527;28;20298;-80
2022/04/23 10:08:13;;;;;;;0.40;0.40;;;;;;;17.14;50.10;94587.88;5017911;28;20203;-79
2022/04/23 10:10:44;;;;;;;0.63;0.60;;;;;;;17.20;49.20;94599.44;5021685;28;20205;-79
2022/04/23 10:13:13;;;;;;;0.83;0.80;;;;;;;17.01;49.63;94580.63;5022746;28;20238;-79
2022/04/23 10:15:45;;;;;;;0.33;0.33;;;;;;;16.93;50.00;94579.44;5030877;28;20327;-79
2022/04/23 10:18:12;;;;;;;1.27;0.40;;;;;;;16.90;49.43;94590.16;5035606;28;20217;-79
2022/04/23 10:20:52;;;;;;;0.30;0.30;;;;;;;16.79;48.13;94572.47;5020977;28;20213;-79
2022/04/23 10:23:44;;;;;;;0.53;0.40;;;;;;;16.53;50.89;94611.22;5056540;28;20226;-79
2022/04/23 10:26:27;;;;;;;0.40;0.40;;;;;;;16.40;51.98;94614.81;5045437;28;20205;-80
2022/04/23 10:28:55;;;;;;;1.10;0.60;;;;;;;16.44;52.38;94604.91;5029450;28;20203;-80
2022/04/23 10:31:23;;;;;;;0.40;0.40;;;;;;;16.49;51.35;94607.53;5019711;28;20210;-80
2022/04/23 10:33:51;;;;;;;0.93;0.40;;;;;;;16.57;50.86;94612.22;5037434;28;20211;-80
2022/04/23 10:36:21;;;;;;;0.40;0.40;;;;;;;16.88;48.76;94614.19;5063925;28;20219;-80
2022/04/23 10:38:52;;;;;;;0.40;0.40;;;;;;;17.12;47.86;94619.31;5060766;28;20284;-81
2022/04/23 10:41:21;;;;;;;0.40;0.40;;;;;;;17.27;48.21;94603.31;5052469;28;20202;-80
2022/04/23 10:43:50;;;;;;;0.50;0.50;;;;;;;17.37;48.34;94610.44;5038157;28;20207;-81
2022/04/23 10:46:45;;;;;;;0.50;0.50;;;;;;;17.39;48.72;94606.28;5052692;28;20262;-80
2022/04/23 10:49:16;;;;;;;0.40;0.40;;;;;;;17.72;47.93;94600.47;5063463;28;20211;-81
2022/04/23 10:51:55;;;;;;;0.43;0.43;;;;;;;18.21;45.57;94598.44;5020532;28;20209;-80
2022/04/23 10:54:55;;;;;;;0.47;0.47;;;;;;;18.22;46.03;94611.00;5023809;28;20194;-81
2022/04/23 10:57:23;;;;;;;0.50;0.50;;;;;;;18.42;45.18;94592.03;5031858;28;20317;-81
2022/04/23 10:59:52;;;;;;;0.40;0.40;;;;;;;18.86;42.65;94603.78;5022204;28;20219;-81
2022/04/23 11:02:33;;;;;;;0.50;0.50;;;;;;;18.80;42.06;94577.69;5036527;28;20199;-81
2022/04/23 11:13:28;;;;;;;0.63;0.50;;;;;;;19.13;40.13;94561.56;5035560;28;20266;-81
2022/04/23 11:16:17;;;;;;;2.00;0.67;;;;;;;19.11;40.89;94561.06;5055408;28;20223;-80
2022/04/23 11:18:45;;;;;;;0.60;0.60;;;;;;;18.93;40.35;94560.31;5038509;28;20211;-81
2022/04/23 11:21:17;;;;;;;0.60;0.60;;;;;;;18.43;40.74;94546.41;5022773;28;20213;-81
2022/04/23 11:23:47;;;;;;;0.50;0.50;;;;;;;18.44;41.23;94553.47;5023617;28;20282;-81
2022/04/23 11:26:14;;;;;;;0.50;0.50;;;;;;;18.65;41.05;94513.41;5025513;28;20217;-80
2022/04/23 11:28:42;;;;;;;0.60;0.60;;;;;;;18.72;40.66;94541.06;5039054;28;20201;-81
2022/04/23 11:31:15;;;;;;;0.53;0.53;;;;;;;18.88;39.86;94552.31;5025563;28;20219;-81
2022/04/23 11:33:56;;;;;;;1.30;0.67;;;;;;;19.11;37.31;94544.66;5029940;28;20237;-80
2022/04/23 11:36:28;;;;;;;0.80;0.80;;;;;;;19.27;36.21;94542.97;5043181;28;20218;-81
2022/04/23 11:38:58;;;;;;;0.60;0.60;;;;;;;19.23;37.13;94533.81;5054915;28;20305;-80
2022/04/23 11:41:33;;;;;;;0.60;0.60;;;;;;;19.15;37.09;94512.75;5039233;28;20218;-81
2022/04/23 11:44:12;;;;;;;1.70;0.60;;;;;;;19.17;37.40;94518.72;5036931;28;20215;-80
2022/04/23 11:46:43;;;;;;;0.60;0.60;;;;;;;18.78;38.34;94520.63;5053753;28;20216;-81
2022/04/23 11:49:11;;;;;;;0.70;0.70;;;;;;;19.08;38.29;94515.22;5056040;28;20317;-80
2022/04/23 11:51:41;;;;;;;0.50;0.50;;;;;;;19.39;37.87;94514.94;5028371;28;20210;-81
2022/04/23 11:54:10;;;;;;;0.90;0.60;;;;;;;19.54;37.70;94511.66;5023686;28;20245;-80
2022/04/23 11:56:39;;;;;;;0.63;0.63;;;;;;;19.61;37.23;94504.50;5022440;28;20223;-80
2022/04/23 11:59:09;;;;;;;0.97;0.60;;;;;;;19.85;34.38;94509.34;5039621;28;20226;-80
2022/04/23 12:01:38;;;;;;;0.60;0.60;;;;;;;20.09;36.82;94514.16;5022193;28;20626;-80